createdAt,value
2023-05-20T00:00:37.937Z,1410.00
2023-05-20T00:01:37.907Z,1386.00
2023-05-20T00:02:37.979Z,1385.00
2023-05-20T00:03:37.986Z,1402.00
2023-05-20T00:04:37.937Z,1377.00
2023-05-20T00:05:37.869Z,1377.00
2023-05-20T00:06:37.871Z,1373.00
2023-05-20T00:07:37.862Z,1372.00
2023-05-20T00:08:37.870Z,1362.00
2023-05-20T00:09:37.889Z,1357.00
2023-05-20T00:10:37.844Z,1356.00
2023-05-20T00:11:37.849Z,1351.00
2023-05-20T00:12:37.843Z,1361.00
2023-05-20T00:13:37.883Z,1353.00
2023-05-20T00:14:37.852Z,1353.00
2023-05-20T00:15:38.020Z,1337.00
2023-05-20T00:16:37.886Z,1351.00
2023-05-20T00:17:37.887Z,1357.00
2023-05-20T00:18:37.823Z,1333.00
2023-05-20T00:19:37.824Z,1340.00
2023-05-20T00:20:37.876Z,1357.00
2023-05-20T00:21:37.792Z,1348.00
2023-05-20T00:22:37.802Z,1338.00
2023-05-20T00:23:37.817Z,1333.00
2023-05-20T00:24:37.793Z,1319.00
2023-05-20T00:25:37.802Z,1326.00
2023-05-20T00:26:37.757Z,1323.00
2023-05-20T00:27:37.773Z,1331.00
2023-05-20T00:28:37.734Z,1322.00
2023-05-20T00:29:37.802Z,1330.00
2023-05-20T00:30:37.809Z,1349.00
2023-05-20T00:31:37.880Z,1348.00
2023-05-20T00:32:37.838Z,1340.00
2023-05-20T00:33:37.848Z,1345.00
2023-05-20T00:34:37.882Z,1359.00
2023-05-20T00:35:37.883Z,1359.00
2023-05-20T00:36:37.893Z,1345.00
2023-05-20T00:37:37.917Z,1371.00
2023-05-20T00:38:37.938Z,1358.00
2023-05-20T00:39:37.959Z,1346.00
2023-05-20T00:40:38.019Z,1359.00
2023-05-20T00:41:38.005Z,1377.00
2023-05-20T00:42:38.015Z,1383.00
2023-05-20T00:43:38.042Z,1394.00
2023-05-20T00:44:38.041Z,1379.00
2023-05-20T00:45:38.137Z,1373.00
2023-05-20T00:46:38.148Z,1380.00
2023-05-20T00:47:38.121Z,1364.00
2023-05-20T00:48:38.158Z,1401.00
2023-05-20T00:49:38.136Z,1381.00
2023-05-20T00:50:38.191Z,1368.00
2023-05-20T00:51:38.201Z,1367.00
2023-05-20T00:52:38.231Z,1369.00
2023-05-20T00:53:38.261Z,1397.00
2023-05-20T00:54:38.241Z,1401.00
2023-05-20T00:55:38.275Z,1376.00
2023-05-20T00:56:38.269Z,1400.00
2023-05-20T00:57:38.293Z,1393.00
2023-05-20T00:58:38.310Z,1415.00
2023-05-20T00:59:38.345Z,1422.00
2023-05-20T01:00:38.356Z,1418.00
2023-05-20T01:01:38.419Z,1416.00
2023-05-20T01:02:38.456Z,1414.00
2023-05-20T01:03:38.760Z,1409.00
2023-05-20T01:04:38.405Z,1415.00
2023-05-20T01:05:41.398Z,1427.00
2023-05-20T01:06:38.435Z,1434.00
2023-05-20T01:07:38.443Z,1414.00
2023-05-20T01:08:38.400Z,1422.00
2023-05-20T01:09:38.423Z,1426.00
2023-05-20T01:10:38.418Z,1422.00
2023-05-20T01:11:38.391Z,1405.00
2023-05-20T01:12:38.391Z,1401.00
2023-05-20T01:13:38.363Z,1408.00
2023-05-20T01:14:38.349Z,1408.00
2023-05-20T01:15:38.481Z,1406.00
2023-05-20T01:16:38.414Z,1391.00
2023-05-20T01:17:38.401Z,1379.00
2023-05-20T01:18:38.372Z,1364.00
2023-05-20T01:19:38.346Z,1360.00
2023-05-20T01:20:38.357Z,1355.00
2023-05-20T01:21:38.303Z,1347.00
2023-05-20T01:22:38.334Z,1342.00
2023-05-20T01:23:38.320Z,1344.00
2023-05-20T01:24:38.293Z,1355.00
2023-05-20T01:25:38.309Z,1358.00
2023-05-20T01:26:38.407Z,1343.00
2023-05-20T01:27:38.288Z,1362.00
2023-05-20T01:28:38.261Z,1366.00
2023-05-20T01:29:38.268Z,1370.00
2023-05-20T01:30:38.291Z,1365.00
2023-05-20T01:31:38.290Z,1372.00
2023-05-20T01:32:38.301Z,1354.00
2023-05-20T01:33:38.235Z,1346.00
2023-05-20T01:34:38.231Z,1346.00
2023-05-20T01:35:38.235Z,1333.00
2023-05-20T01:36:38.237Z,1333.00
2023-05-20T01:37:38.228Z,1327.00
2023-05-20T01:38:38.219Z,1334.00
2023-05-20T01:39:38.189Z,1335.00
2023-05-20T01:40:38.217Z,1329.00
2023-05-20T01:41:38.202Z,1321.00
2023-05-20T01:42:38.205Z,1317.00
2023-05-20T01:43:38.178Z,1316.00
2023-05-20T01:44:38.177Z,1304.00
2023-05-20T01:45:38.179Z,1310.00
2023-05-20T01:46:38.194Z,1327.00
2023-05-20T01:47:38.210Z,1327.00
2023-05-20T01:48:38.149Z,1317.00
2023-05-20T01:49:38.142Z,1305.00
2023-05-20T01:50:38.154Z,1293.00
2023-05-20T01:51:38.144Z,1287.00
2023-05-20T01:52:38.121Z,1286.00
2023-05-20T01:53:38.118Z,1276.00
2023-05-20T01:54:38.106Z,1282.00
2023-05-20T01:55:38.120Z,1275.00
2023-05-20T01:56:38.124Z,1278.00
2023-05-20T01:57:38.168Z,1285.00
2023-05-20T01:58:38.105Z,1274.00
2023-05-20T01:59:38.114Z,1299.00
2023-05-20T02:00:38.089Z,1282.00
2023-05-20T02:01:38.134Z,1281.00
2023-05-20T02:02:38.234Z,1294.00
2023-05-20T02:03:38.083Z,1303.00
2023-05-20T02:04:38.040Z,1308.00
2023-05-20T02:05:38.561Z,1297.00
2023-05-20T02:06:38.080Z,1311.00
2023-05-20T02:07:38.069Z,1322.00
2023-05-20T02:08:38.071Z,1316.00
2023-05-20T02:09:38.079Z,1319.00
2023-05-20T02:10:38.113Z,1330.00
2023-05-20T02:11:38.115Z,1341.00
2023-05-20T02:12:38.165Z,1355.00
2023-05-20T02:13:38.207Z,1362.00
2023-05-20T02:14:38.247Z,1358.00
2023-05-20T02:15:38.225Z,1361.00
2023-05-20T02:16:38.293Z,1356.00
2023-05-20T02:17:38.310Z,1349.00
2023-05-20T02:18:38.310Z,1353.00
2023-05-20T02:19:38.366Z,1355.00
2023-05-20T02:20:38.379Z,1357.00
2023-05-20T02:21:38.392Z,1357.00
2023-05-20T02:22:38.376Z,1369.00
2023-05-20T02:23:38.430Z,1364.00
2023-05-20T02:24:38.455Z,1382.00
2023-05-20T02:25:38.472Z,1365.00
2023-05-20T02:26:38.514Z,1376.00
2023-05-20T02:27:38.536Z,1358.00
2023-05-20T02:28:38.545Z,1363.00
2023-05-20T02:29:38.593Z,1360.00
2023-05-20T02:30:38.617Z,1359.00
2023-05-20T02:31:38.625Z,1368.00
2023-05-20T02:32:38.660Z,1392.00
2023-05-20T02:33:38.730Z,1402.00
2023-05-20T02:34:38.717Z,1411.00
2023-05-20T02:35:38.726Z,1384.00
2023-05-20T02:36:38.748Z,1399.00
2023-05-20T02:37:38.792Z,1389.00
2023-05-20T02:38:38.784Z,1380.00
2023-05-20T02:39:38.804Z,1375.00
2023-05-20T02:40:38.864Z,1387.00
2023-05-20T02:41:38.880Z,1387.00
2023-05-20T02:42:38.911Z,1375.00
2023-05-20T02:43:38.926Z,1391.00
2023-05-20T02:44:38.917Z,1388.00
2023-05-20T02:45:39.048Z,1396.00
2023-05-20T02:46:39.070Z,1385.00
2023-05-20T02:47:39.041Z,1389.00
2023-05-20T02:48:39.062Z,1394.00
2023-05-20T02:49:39.052Z,1393.00
2023-05-20T02:50:39.128Z,1397.00
2023-05-20T02:51:39.100Z,1399.00
2023-05-20T02:52:39.155Z,1393.00
2023-05-20T02:53:39.172Z,1395.00
2023-05-20T02:54:39.208Z,1393.00
2023-05-20T02:55:39.239Z,1384.00
2023-05-20T02:56:39.249Z,1385.00
2023-05-20T02:57:39.307Z,1387.00
2023-05-20T02:58:39.310Z,1384.00
2023-05-20T02:59:39.349Z,1392.00
2023-05-20T03:00:39.375Z,1393.00
2023-05-20T03:01:39.461Z,1386.00
2023-05-20T03:02:39.543Z,1398.00
2023-05-20T03:03:39.470Z,1394.00
2023-05-20T03:04:39.522Z,1402.00
2023-05-20T03:05:39.541Z,1388.00
2023-05-20T03:06:39.557Z,1399.00
2023-05-20T03:07:39.577Z,1403.00
2023-05-20T03:08:39.653Z,1397.00
2023-05-20T03:09:39.707Z,1401.00
2023-05-20T03:10:39.726Z,1410.00
2023-05-20T03:11:39.725Z,1396.00
2023-05-20T03:12:39.796Z,1399.00
2023-05-20T03:13:39.828Z,1396.00
2023-05-20T03:14:39.808Z,1390.00
2023-05-20T03:15:39.899Z,1401.00
2023-05-20T03:16:39.894Z,1402.00
2023-05-20T03:17:39.944Z,1400.00
2023-05-20T03:18:39.988Z,1404.00
2023-05-20T03:19:39.966Z,1396.00
2023-05-20T03:20:40.023Z,1401.00
2023-05-20T03:21:40.001Z,1398.00
2023-05-20T03:22:40.023Z,1392.00
2023-05-20T03:23:40.084Z,1407.00
2023-05-20T03:24:40.112Z,1413.00
2023-05-20T03:25:40.103Z,1411.00
2023-05-20T03:26:40.142Z,1411.00
2023-05-20T03:27:40.204Z,1431.00
2023-05-20T03:28:40.213Z,1407.00
2023-05-20T03:29:40.248Z,1412.00
2023-05-20T03:30:40.264Z,1415.00
2023-05-20T03:31:40.418Z,1415.00
2023-05-20T03:32:40.380Z,1412.00
2023-05-20T03:33:40.371Z,1436.00
2023-05-20T03:34:40.408Z,1426.00
2023-05-20T03:35:40.446Z,1436.00
2023-05-20T03:36:40.449Z,1429.00
2023-05-20T03:37:40.519Z,1437.00
2023-05-20T03:38:40.534Z,1443.00
2023-05-20T03:39:40.572Z,1434.00
2023-05-20T03:40:40.641Z,1442.00
2023-05-20T03:41:40.636Z,1439.00
2023-05-20T03:42:40.667Z,1435.00
2023-05-20T03:43:40.667Z,1429.00
2023-05-20T03:44:40.721Z,1447.00
2023-05-20T03:45:40.730Z,1450.00
2023-05-20T03:46:40.809Z,1438.00
2023-05-20T03:47:40.806Z,1447.00
2023-05-20T03:48:40.821Z,1436.00
2023-05-20T03:49:40.851Z,1448.00
2023-05-20T03:50:40.917Z,1433.00
2023-05-20T03:51:40.929Z,1439.00
2023-05-20T03:52:40.965Z,1435.00
2023-05-20T03:53:40.970Z,1433.00
2023-05-20T03:54:41.003Z,1428.00
2023-05-20T03:55:41.046Z,1441.00
2023-05-20T03:56:41.079Z,1441.00
2023-05-20T03:57:41.132Z,1424.00
2023-05-20T03:58:41.158Z,1444.00
2023-05-20T03:59:41.166Z,1436.00
2023-05-20T04:00:41.218Z,1430.00
2023-05-20T04:01:41.292Z,1438.00
2023-05-20T04:02:41.383Z,1420.00
2023-05-20T04:03:41.405Z,1432.00
2023-05-20T04:04:41.314Z,1419.00
2023-05-20T04:05:41.371Z,1414.00
2023-05-20T04:06:41.428Z,1419.00
2023-05-20T04:07:41.478Z,1434.00
2023-05-20T04:08:41.455Z,1406.00
2023-05-20T04:09:41.462Z,1422.00
2023-05-20T04:10:41.468Z,1417.00
2023-05-20T04:11:41.493Z,1412.00
2023-05-20T04:12:41.550Z,1396.00
2023-05-20T04:13:41.543Z,1402.00
2023-05-20T04:14:41.592Z,1407.00
2023-05-20T04:15:41.616Z,1408.00
2023-05-20T04:16:41.641Z,1408.00
2023-05-20T04:17:41.670Z,1383.00
2023-05-20T04:18:41.729Z,1387.00
2023-05-20T04:19:41.742Z,1394.00
2023-05-20T04:20:41.746Z,1384.00
2023-05-20T04:21:41.749Z,1388.00
2023-05-20T04:22:41.800Z,1389.00
2023-05-20T04:23:41.858Z,1394.00
2023-05-20T04:24:41.851Z,1397.00
2023-05-20T04:25:41.918Z,1398.00
2023-05-20T04:26:41.904Z,1379.00
2023-05-20T04:27:41.977Z,1383.00
2023-05-20T04:28:42.016Z,1371.00
2023-05-20T04:29:42.066Z,1389.00
2023-05-20T04:30:42.087Z,1383.00
2023-05-20T04:31:42.172Z,1372.00
2023-05-20T04:32:42.157Z,1379.00
2023-05-20T04:33:42.157Z,1385.00
2023-05-20T04:34:42.198Z,1377.00
2023-05-20T04:35:42.238Z,1384.00
2023-05-20T04:36:42.234Z,1378.00
2023-05-20T04:37:42.528Z,1381.00
2023-05-20T04:38:42.331Z,1390.00
2023-05-20T04:39:42.323Z,1367.00
2023-05-20T04:40:42.357Z,1374.00
2023-05-20T04:41:42.378Z,1385.00
2023-05-20T04:42:42.401Z,1381.00
2023-05-20T04:43:42.419Z,1380.00
2023-05-20T04:44:42.503Z,1395.00
2023-05-20T04:45:42.496Z,1391.00
2023-05-20T04:46:42.493Z,1378.00
2023-05-20T04:47:42.556Z,1372.00
2023-05-20T04:48:42.553Z,1383.00
2023-05-20T04:49:42.576Z,1389.00
2023-05-20T04:50:42.618Z,1369.00
2023-05-20T04:51:42.672Z,1385.00
2023-05-20T04:52:42.692Z,1381.00
2023-05-20T04:53:44.176Z,1368.00
2023-05-20T04:54:42.677Z,1389.00
2023-05-20T04:55:42.702Z,1375.00
2023-05-20T04:56:42.693Z,1378.00
2023-05-20T04:57:42.873Z,1376.00
2023-05-20T04:58:42.672Z,1379.00
2023-05-20T04:59:42.681Z,1380.00
2023-05-20T05:00:42.682Z,1370.00
2023-05-20T05:01:42.812Z,1382.00
2023-05-20T05:02:42.677Z,1380.00
2023-05-20T05:03:42.659Z,1380.00
2023-05-20T05:04:42.733Z,1380.00
2023-05-20T05:05:42.669Z,1390.00
2023-05-20T05:06:42.606Z,1388.00
2023-05-20T05:07:42.617Z,1383.00
2023-05-20T05:08:42.624Z,1381.00
2023-05-20T05:09:42.613Z,1377.00
2023-05-20T05:10:42.609Z,1369.00
2023-05-20T05:11:42.577Z,1383.00
2023-05-20T05:12:42.589Z,1366.00
2023-05-20T05:13:42.595Z,1374.00
2023-05-20T05:14:42.560Z,1355.00
2023-05-20T05:15:42.587Z,1357.00
2023-05-20T05:16:42.562Z,1356.00
2023-05-20T05:17:42.584Z,1365.00
2023-05-20T05:18:42.560Z,1358.00
2023-05-20T05:19:42.538Z,1349.00
2023-05-20T05:20:42.555Z,1351.00
2023-05-20T05:21:42.510Z,1351.00
2023-05-20T05:22:42.552Z,1358.00
2023-05-20T05:23:42.504Z,1358.00
2023-05-20T05:24:42.523Z,1350.00
2023-05-20T05:25:42.552Z,1354.00
2023-05-20T05:26:42.515Z,1345.00
2023-05-20T05:27:42.494Z,1349.00
2023-05-20T05:28:42.515Z,1360.00
2023-05-20T05:29:42.488Z,1357.00
2023-05-20T05:30:42.468Z,1336.00
2023-05-20T05:31:42.444Z,1352.00
2023-05-20T05:32:42.567Z,1351.00
2023-05-20T05:33:42.453Z,1341.00
2023-05-20T05:34:42.428Z,1357.00
2023-05-20T05:35:42.457Z,1352.00
2023-05-20T05:36:42.421Z,1341.00
2023-05-20T05:37:42.412Z,1337.00
2023-05-20T05:38:42.435Z,1354.00
2023-05-20T05:39:42.449Z,1336.00
2023-05-20T05:40:42.432Z,1349.00
2023-05-20T05:41:42.381Z,1351.00
2023-05-20T05:42:42.401Z,1331.00
2023-05-20T05:43:42.366Z,1339.00
2023-05-20T05:44:42.367Z,1341.00
2023-05-20T05:45:42.355Z,1313.00
2023-05-20T05:46:42.451Z,1311.00
2023-05-20T05:47:42.394Z,1325.00
2023-05-20T05:48:42.346Z,1316.00
2023-05-20T05:49:42.344Z,1309.00
2023-05-20T05:50:42.347Z,1302.00
2023-05-20T05:51:42.369Z,1294.00
2023-05-20T05:52:42.320Z,1288.00
2023-05-20T05:53:42.311Z,1288.00
2023-05-20T05:54:42.328Z,1283.00
2023-05-20T05:55:42.324Z,1281.00
2023-05-20T05:56:42.304Z,1273.00
2023-05-20T05:57:42.268Z,1262.00
2023-05-20T05:58:42.277Z,1258.00
2023-05-20T05:59:42.259Z,1258.00
2023-05-20T06:00:42.289Z,1259.00
2023-05-20T06:01:42.298Z,1247.00
2023-05-20T06:02:42.329Z,1262.00
2023-05-20T06:03:42.387Z,1252.00
2023-05-20T06:04:42.244Z,1261.00
2023-05-20T06:05:42.247Z,1250.00
2023-05-20T06:06:42.207Z,1259.00
2023-05-20T06:07:42.216Z,1250.00
2023-05-20T06:08:42.231Z,1239.00
2023-05-20T06:09:42.271Z,1229.00
2023-05-20T06:10:42.271Z,1228.00
2023-05-20T06:11:42.317Z,1237.00
2023-05-20T06:12:42.276Z,1241.00
2023-05-20T06:13:42.408Z,1225.00
2023-05-20T06:14:42.361Z,1225.00
2023-05-20T06:15:42.348Z,1219.00
2023-05-20T06:16:42.376Z,1218.00
2023-05-20T06:17:42.523Z,1226.00
2023-05-20T06:18:42.416Z,1233.00
2023-05-20T06:19:42.478Z,1190.00
2023-05-20T06:20:42.453Z,1213.00
2023-05-20T06:21:42.450Z,1209.00
2023-05-20T06:22:42.495Z,1186.00
2023-05-20T06:23:42.482Z,1197.00
2023-05-20T06:24:42.504Z,1190.00
2023-05-20T06:25:42.544Z,1171.00
2023-05-20T06:26:42.529Z,1180.00
2023-05-20T06:27:42.584Z,1194.00
2023-05-20T06:28:42.576Z,1194.00
2023-05-20T06:29:43.834Z,1184.00
2023-05-20T06:30:42.608Z,1169.00
2023-05-20T06:31:42.610Z,1196.00
2023-05-20T06:32:42.670Z,1185.00
2023-05-20T06:33:42.667Z,1183.00
2023-05-20T06:34:42.701Z,1167.00
2023-05-20T06:35:42.708Z,1172.00
2023-05-20T06:36:42.731Z,1165.00
2023-05-20T06:37:42.765Z,1176.00
2023-05-20T06:38:42.724Z,1184.00
2023-05-20T06:39:42.762Z,1180.00
2023-05-20T06:40:42.761Z,1181.00
2023-05-20T06:41:42.746Z,1172.00
2023-05-20T06:42:42.779Z,1161.00
2023-05-20T06:43:42.785Z,1161.00
2023-05-20T06:44:42.812Z,1167.00
2023-05-20T06:45:42.814Z,1157.00
2023-05-20T06:46:42.844Z,1169.00
2023-05-20T06:47:42.867Z,1161.00
2023-05-20T06:48:42.838Z,1138.00
2023-05-20T06:49:43.922Z,1163.00
2023-05-20T06:50:42.856Z,1166.00
2023-05-20T06:51:42.821Z,1136.00
2023-05-20T06:52:42.794Z,1162.00
2023-05-20T06:53:42.844Z,1168.00
2023-05-20T06:54:42.820Z,1143.00
2023-05-20T06:55:42.797Z,1142.00
2023-05-20T06:56:42.800Z,1141.00
2023-05-20T06:57:42.801Z,1153.00
2023-05-20T06:58:42.752Z,1134.00
2023-05-20T06:59:42.788Z,1124.00
2023-05-20T07:00:42.761Z,1151.00
2023-05-20T07:01:42.895Z,1162.00
2023-05-20T07:02:42.762Z,1158.00
2023-05-20T07:03:42.798Z,1116.00
2023-05-20T07:04:42.731Z,1083.00
2023-05-20T07:05:42.722Z,1085.00
2023-05-20T07:06:42.762Z,1114.00
2023-05-20T07:07:42.714Z,1113.00
2023-05-20T07:08:42.701Z,1111.00
2023-05-20T07:09:42.683Z,1109.00
2023-05-20T07:10:42.692Z,1155.00
2023-05-20T07:11:42.664Z,1121.00
2023-05-20T07:12:42.682Z,1127.00
2023-05-20T07:13:42.682Z,1144.00
2023-05-20T07:14:42.656Z,1135.00
2023-05-20T07:15:43.415Z,1149.00
2023-05-20T07:16:42.683Z,1147.00
2023-05-20T07:17:42.692Z,1118.00
2023-05-20T07:18:42.720Z,1124.00
2023-05-20T07:19:42.663Z,1130.00
2023-05-20T07:20:42.654Z,1143.00
2023-05-20T07:21:42.621Z,1127.00
2023-05-20T07:22:42.612Z,1121.00
2023-05-20T07:23:42.595Z,1075.00
2023-05-20T07:24:42.594Z,1067.00
2023-05-20T07:25:42.603Z,1056.00
2023-05-20T07:26:42.600Z,1072.00
2023-05-20T07:27:42.569Z,1087.00
2023-05-20T07:28:42.572Z,1050.00
2023-05-20T07:29:42.558Z,1027.00
2023-05-20T07:30:42.552Z,1031.00
2023-05-20T07:31:42.621Z,1042.00
2023-05-20T07:32:42.621Z,1060.00
2023-05-20T07:33:42.526Z,1075.00
2023-05-20T07:34:42.541Z,1099.00
2023-05-20T07:35:42.541Z,1106.00
2023-05-20T07:36:42.535Z,1081.00
2023-05-20T07:37:42.523Z,1083.00
2023-05-20T07:38:47.218Z,1089.00
2023-05-20T07:39:43.520Z,1090.00
2023-05-20T07:40:42.505Z,1054.00
2023-05-20T07:41:42.519Z,1025.00
2023-05-20T07:42:42.466Z,1025.00
2023-05-20T07:43:42.493Z,1057.00
2023-05-20T07:44:42.457Z,1051.00
2023-05-20T07:45:42.504Z,1051.00
2023-05-20T07:46:42.504Z,993.00
2023-05-20T07:47:42.530Z,957.00
2023-05-20T07:48:42.530Z,1011.00
2023-05-20T07:49:42.627Z,1025.00
2023-05-20T07:50:42.663Z,1038.00
2023-05-20T07:51:42.746Z,1024.00
2023-05-20T07:52:55.422Z,1033.00
2023-05-20T07:53:43.818Z,1033.00
2023-05-20T07:54:42.777Z,1036.00
2023-05-20T07:55:42.762Z,1025.00
2023-05-20T07:56:42.783Z,1035.00
2023-05-20T07:57:44.698Z,1043.00
2023-05-20T07:58:42.752Z,1055.00
2023-05-20T07:59:42.761Z,1055.00
2023-05-20T08:00:42.722Z,1049.00
2023-05-20T08:01:42.813Z,1051.00
2023-05-20T08:02:43.038Z,1048.00
2023-05-20T08:03:43.022Z,1069.00
2023-05-20T08:04:43.049Z,1056.00
2023-05-20T08:05:43.042Z,1055.00
2023-05-20T08:06:43.094Z,1067.00
2023-05-20T08:07:43.146Z,1067.00
2023-05-20T08:08:43.238Z,1056.00
2023-05-20T08:09:43.295Z,1059.00
2023-05-20T08:10:43.342Z,1045.00
2023-05-20T08:11:44.372Z,1062.00
2023-05-20T08:12:43.483Z,1059.00
2023-05-20T08:13:43.551Z,1069.00
2023-05-20T08:14:43.577Z,1063.00
2023-05-20T08:15:43.641Z,1061.00
2023-05-20T08:16:43.731Z,1065.00
2023-05-20T08:17:43.797Z,1065.00
2023-05-20T08:18:43.854Z,1046.00
2023-05-20T08:19:43.892Z,1036.00
2023-05-20T08:20:43.932Z,1045.00
2023-05-20T08:21:44.098Z,1020.00
2023-05-20T08:22:44.018Z,1033.00
2023-05-20T08:23:44.073Z,1017.00
2023-05-20T08:24:44.101Z,1003.00
2023-05-20T08:25:44.185Z,1019.00
2023-05-20T08:26:44.229Z,1002.00
2023-05-20T08:27:44.253Z,1015.00
2023-05-20T08:28:44.310Z,998.00
2023-05-20T08:29:44.346Z,1015.00
2023-05-20T08:30:44.412Z,1016.00
2023-05-20T08:31:44.530Z,1023.00
2023-05-20T08:32:44.541Z,1014.00
2023-05-20T08:33:44.550Z,1027.00
2023-05-20T08:34:44.586Z,1013.00
2023-05-20T08:35:44.670Z,1017.00
2023-05-20T08:36:44.716Z,1011.00
2023-05-20T08:37:44.772Z,992.00
2023-05-20T08:38:44.815Z,1010.00
2023-05-20T08:39:44.878Z,1023.00
2023-05-20T08:40:44.922Z,1008.00
2023-05-20T08:41:44.960Z,999.00
2023-05-20T08:42:45.016Z,1007.00
2023-05-20T08:43:45.030Z,1016.00
2023-05-20T08:44:45.086Z,1023.00
2023-05-20T08:45:45.142Z,1018.00
2023-05-20T08:46:45.248Z,1007.00
2023-05-20T08:47:45.214Z,1017.00
2023-05-20T08:48:45.255Z,1036.00
2023-05-20T08:49:45.257Z,1031.00
2023-05-20T08:50:45.376Z,1031.00
2023-05-20T08:51:45.375Z,1016.00
2023-05-20T08:52:45.408Z,1001.00
2023-05-20T08:53:45.455Z,1005.00
2023-05-20T08:54:45.458Z,995.00
2023-05-20T08:55:45.504Z,1005.00
2023-05-20T08:56:45.598Z,1015.00
2023-05-20T08:57:45.607Z,1011.00
2023-05-20T08:58:45.669Z,1013.00
2023-05-20T08:59:45.703Z,1009.00
2023-05-20T09:00:45.707Z,1019.00
2023-05-20T09:01:45.839Z,1001.00
2023-05-20T09:02:45.812Z,1006.00
2023-05-20T09:03:45.819Z,982.00
2023-05-20T09:04:45.928Z,957.00
2023-05-20T09:05:45.904Z,959.00
2023-05-20T09:06:45.936Z,981.00
2023-05-20T09:07:46.004Z,981.00
2023-05-20T09:08:46.006Z,982.00
2023-05-20T09:09:46.081Z,993.00
2023-05-20T09:10:46.104Z,980.00
2023-05-20T09:11:46.138Z,961.00
2023-05-20T09:12:46.169Z,950.00
2023-05-20T09:13:46.202Z,973.00
2023-05-20T09:14:46.238Z,980.00
2023-05-20T09:15:46.303Z,963.00
2023-05-20T09:16:46.382Z,908.00
2023-05-20T09:17:46.343Z,903.00
2023-05-20T09:18:46.419Z,917.00
2023-05-20T09:19:46.438Z,949.00
2023-05-20T09:20:46.435Z,910.00
2023-05-20T09:21:46.517Z,885.00
2023-05-20T09:22:46.540Z,861.00
2023-05-20T09:23:46.575Z,868.00
2023-05-20T09:24:46.576Z,882.00
2023-05-20T09:25:46.619Z,894.00
2023-05-20T09:26:46.636Z,869.00
2023-05-20T09:27:46.698Z,885.00
2023-05-20T09:28:46.723Z,897.00
2023-05-20T09:29:46.763Z,875.00
2023-05-20T09:30:46.759Z,889.00
2023-05-20T09:31:46.831Z,873.00
2023-05-20T09:32:46.902Z,868.00
2023-05-20T09:33:46.917Z,879.00
2023-05-20T09:34:46.879Z,863.00
2023-05-20T09:35:46.944Z,838.00
2023-05-20T09:36:46.967Z,832.00
2023-05-20T09:37:46.975Z,842.00
2023-05-20T09:38:46.980Z,865.00
2023-05-20T09:39:47.028Z,850.00
2023-05-20T09:40:47.083Z,855.00
2023-05-20T09:41:47.085Z,844.00
2023-05-20T09:42:47.071Z,837.00
2023-05-20T09:43:47.140Z,849.00
2023-05-20T09:44:47.127Z,848.00
2023-05-20T09:45:47.181Z,847.00
2023-05-20T09:46:47.181Z,814.00
2023-05-20T09:47:47.236Z,814.00
2023-05-20T09:48:47.228Z,792.00
2023-05-20T09:49:47.263Z,744.00
2023-05-20T09:50:47.272Z,726.00
2023-05-20T09:51:47.306Z,715.00
2023-05-20T09:52:47.331Z,686.00
2023-05-20T09:53:47.341Z,689.00
2023-05-20T09:54:47.373Z,700.00
2023-05-20T09:55:47.368Z,694.00
2023-05-20T09:56:47.414Z,677.00
2023-05-20T09:57:47.432Z,719.00
2023-05-20T09:58:47.481Z,740.00
2023-05-20T09:59:47.461Z,733.00
2023-05-20T10:00:47.503Z,757.00
2023-05-20T10:01:47.574Z,754.00
2023-05-20T10:02:47.596Z,738.00
2023-05-20T10:03:47.683Z,741.00
2023-05-20T10:04:47.540Z,752.00
2023-05-20T10:05:47.562Z,768.00
2023-05-20T10:06:47.605Z,807.00
2023-05-20T10:07:47.612Z,784.00
2023-05-20T10:08:47.651Z,728.00
2023-05-20T10:09:47.625Z,681.00
2023-05-20T10:10:47.620Z,670.00
2023-05-20T10:11:47.649Z,675.00
2023-05-20T10:12:47.635Z,647.00
2023-05-20T10:13:47.666Z,635.00
2023-05-20T10:14:47.663Z,615.00
2023-05-20T10:15:47.727Z,637.00
2023-05-20T10:16:47.711Z,658.00
2023-05-20T10:17:47.796Z,673.00
2023-05-20T10:18:47.809Z,670.00
2023-05-20T10:19:47.753Z,664.00
2023-05-20T10:20:47.776Z,691.00
2023-05-20T10:21:47.795Z,699.00
2023-05-20T10:22:47.839Z,675.00
2023-05-20T10:23:47.858Z,683.00
2023-05-20T10:24:47.848Z,692.00
2023-05-20T10:25:47.859Z,707.00
2023-05-20T10:26:47.904Z,677.00
2023-05-20T10:27:48.009Z,670.00
2023-05-20T10:28:47.921Z,662.00
2023-05-20T10:30:47.942Z,682.00
2023-05-20T10:31:47.988Z,712.00
2023-05-20T10:32:48.009Z,700.00
2023-05-20T10:33:48.019Z,716.00
2023-05-20T10:34:48.008Z,729.00
2023-05-20T10:35:48.001Z,703.00
2023-05-20T10:36:48.021Z,696.00
2023-05-20T10:37:48.053Z,711.00
2023-05-20T10:38:48.051Z,754.00
2023-05-20T10:39:48.055Z,729.00
2023-05-20T10:40:48.079Z,720.00
2023-05-20T10:41:48.059Z,725.00
2023-05-20T10:42:48.099Z,703.00
2023-05-20T10:43:48.057Z,665.00
2023-05-20T10:44:48.085Z,687.00
2023-05-20T10:45:48.099Z,666.00
2023-05-20T10:47:00.200Z,634.00
2023-05-20T10:47:49.103Z,634.00
2023-05-20T10:48:48.149Z,631.00
2023-05-20T10:49:48.084Z,633.00
2023-05-20T10:50:48.061Z,625.00
2023-05-20T10:51:48.052Z,637.00
2023-05-20T10:52:48.056Z,651.00
2023-05-20T10:53:48.054Z,654.00
2023-05-20T10:54:50.826Z,637.00
2023-05-20T10:55:48.024Z,637.00
2023-05-20T10:56:48.010Z,627.00
2023-05-20T10:57:48.002Z,602.00
2023-05-20T10:58:47.994Z,615.00
2023-05-20T10:59:48.023Z,612.00
2023-05-20T11:00:49.073Z,623.00
2023-05-20T11:01:47.996Z,623.00
2023-05-20T11:02:48.130Z,613.00
2023-05-20T11:03:48.048Z,624.00
2023-05-20T11:04:47.956Z,617.00
2023-05-20T11:05:47.950Z,615.00
2023-05-20T11:06:47.932Z,601.00
2023-05-20T11:07:47.962Z,584.00
2023-05-20T11:08:47.950Z,554.00
2023-05-20T11:09:47.946Z,573.00
2023-05-20T11:10:47.930Z,510.00
2023-05-20T11:11:47.958Z,516.00
2023-05-20T11:12:47.966Z,575.00
2023-05-20T11:13:47.906Z,614.00
2023-05-20T11:14:47.921Z,641.00
2023-05-20T11:15:47.925Z,643.00
2023-05-20T11:16:47.941Z,616.00
2023-05-20T11:17:47.908Z,607.00
2023-05-20T11:18:47.918Z,612.00
2023-05-20T11:19:47.862Z,604.00
2023-05-20T11:20:47.841Z,607.00
2023-05-20T11:21:47.938Z,610.00
2023-05-20T11:22:47.837Z,589.00
2023-05-20T11:23:47.833Z,539.00
2023-05-20T11:24:47.821Z,545.00
2023-05-20T11:25:47.814Z,584.00
2023-05-20T11:26:47.797Z,600.00
2023-05-20T11:27:47.816Z,570.00
2023-05-20T11:28:47.814Z,555.00
2023-05-20T11:29:47.776Z,527.00
2023-05-20T11:30:47.778Z,505.00
2023-05-20T11:31:47.806Z,505.00
2023-05-20T11:32:47.789Z,507.00
2023-05-20T11:33:47.764Z,538.00
2023-05-20T11:34:47.742Z,544.00
2023-05-20T11:35:47.760Z,549.00
2023-05-20T11:36:47.761Z,551.00
2023-05-20T11:37:47.726Z,541.00
2023-05-20T11:38:47.747Z,556.00
2023-05-20T11:39:47.715Z,558.00
2023-05-20T11:40:50.879Z,559.00
2023-05-20T11:41:47.695Z,560.00
2023-05-20T11:42:47.738Z,546.00
2023-05-20T11:43:47.668Z,536.00
2023-05-20T11:44:47.665Z,560.00
2023-05-20T11:45:47.721Z,514.00
2023-05-20T11:46:47.637Z,505.00
2023-05-20T11:47:47.710Z,510.00
2023-05-20T11:48:47.628Z,506.00
2023-05-20T11:49:47.659Z,500.00
2023-05-20T11:50:47.645Z,502.00
2023-05-20T11:51:47.616Z,503.00
2023-05-20T11:52:47.622Z,532.00
2023-05-20T11:53:47.618Z,536.00
2023-05-20T11:54:47.608Z,550.00
2023-05-20T11:55:47.619Z,559.00
2023-05-20T11:56:47.596Z,562.00
2023-05-20T11:57:47.594Z,568.00
2023-05-20T11:58:47.667Z,528.00
2023-05-20T11:59:47.576Z,504.00
2023-05-20T12:01:47.549Z,509.00
2023-05-20T12:02:47.626Z,504.00
2023-05-20T12:03:47.682Z,500.00
2023-05-20T12:04:47.580Z,497.00
2023-05-20T12:05:47.550Z,501.00
2023-05-20T12:06:47.522Z,536.00
2023-05-20T12:07:47.496Z,547.00
2023-05-20T12:08:47.508Z,531.00
2023-05-20T12:09:47.523Z,540.00
2023-05-20T12:10:47.476Z,537.00
2023-05-20T12:11:47.489Z,542.00
2023-05-20T12:12:47.505Z,561.00
2023-05-20T12:13:47.485Z,574.00